createdAt,value
2022-10-16T00:01:07.329Z,6.40
2022-10-16T00:03:35.894Z,3.97
2022-10-16T00:06:04.631Z,2.87
2022-10-16T00:08:33.569Z,2.40
2022-10-16T00:11:03.010Z,2.73
2022-10-16T00:13:31.817Z,3.00
2022-10-16T00:16:00.942Z,3.87
2022-10-16T00:18:31.154Z,3.63
2022-10-16T00:21:04.590Z,3.70
2022-10-16T00:23:33.308Z,4.47
2022-10-16T00:26:02.583Z,5.93
2022-10-16T00:28:31.405Z,4.20
2022-10-16T00:31:00.214Z,3.43
2022-10-16T00:33:28.659Z,6.80
2022-10-16T00:36:00.269Z,3.73
2022-10-16T00:38:28.750Z,4.50
2022-10-16T00:40:57.284Z,5.80
2022-10-16T00:43:36.980Z,5.30
2022-10-16T00:46:06.525Z,3.40
2022-10-16T00:48:34.959Z,4.57
2022-10-16T00:51:05.133Z,5.37
2022-10-16T00:53:33.615Z,4.67
2022-10-16T00:56:02.170Z,4.07
2022-10-16T00:58:30.623Z,4.50
2022-10-16T01:00:59.172Z,6.13
2022-10-16T01:03:29.658Z,6.27
2022-10-16T01:06:02.779Z,5.50
2022-10-16T01:08:36.649Z,5.73
2022-10-16T01:11:09.841Z,5.70
2022-10-16T01:13:41.382Z,6.33
2022-10-16T01:16:14.435Z,5.73
2022-10-16T01:18:46.247Z,7.27
2022-10-16T01:21:17.350Z,6.27
2022-10-16T01:23:51.722Z,6.07
2022-10-16T01:26:27.612Z,4.17
2022-10-16T01:28:59.169Z,6.07
2022-10-16T01:31:35.672Z,5.67
2022-10-16T01:34:06.533Z,6.30
2022-10-16T01:36:38.499Z,7.43
2022-10-16T01:39:07.557Z,4.77
2022-10-16T01:41:37.849Z,5.27
2022-10-16T01:44:09.391Z,4.10
2022-10-16T01:46:39.731Z,4.53
2022-10-16T01:49:09.059Z,5.30
2022-10-16T01:51:38.015Z,5.27
2022-10-16T01:54:07.912Z,5.70
2022-10-16T01:56:36.867Z,7.13
2022-10-16T01:59:08.279Z,6.00
2022-10-16T02:01:40.160Z,7.47
2022-10-16T02:04:11.549Z,6.07
2022-10-16T02:06:40.035Z,5.30
2022-10-16T02:09:08.488Z,6.47
2022-10-16T02:11:36.969Z,6.77
2022-10-16T02:14:06.742Z,7.40
2022-10-16T02:16:35.992Z,7.70
2022-10-16T02:19:06.427Z,9.07
2022-10-16T02:21:39.238Z,8.27
2022-10-16T02:24:11.304Z,8.53
2022-10-16T02:26:43.233Z,6.20
2022-10-16T02:29:13.243Z,7.83
2022-10-16T02:31:44.202Z,6.57
2022-10-16T02:34:14.739Z,6.23
2022-10-16T02:36:43.689Z,7.23
2022-10-16T02:39:12.837Z,6.90
2022-10-16T02:41:41.357Z,8.67
2022-10-16T02:44:09.841Z,7.70
2022-10-16T02:46:38.312Z,7.27
2022-10-16T02:49:06.756Z,8.67
2022-10-16T02:51:36.611Z,5.97
2022-10-16T02:54:05.318Z,5.60
2022-10-16T02:56:34.292Z,5.30
2022-10-16T02:59:02.696Z,7.40
2022-10-16T03:01:31.208Z,5.87
2022-10-16T03:03:59.665Z,6.57
2022-10-16T03:06:28.119Z,6.43
2022-10-16T03:08:57.938Z,5.43
2022-10-16T03:11:27.355Z,7.10
2022-10-16T03:13:55.755Z,6.60
2022-10-16T03:16:24.214Z,7.77
2022-10-16T03:18:52.635Z,9.27
2022-10-16T03:21:21.102Z,10.47
2022-10-16T03:23:49.703Z,9.93
2022-10-16T03:26:19.515Z,6.20
2022-10-16T03:28:48.038Z,9.77
2022-10-16T03:31:16.610Z,7.03
2022-10-16T03:33:45.037Z,6.90
2022-10-16T03:36:13.480Z,9.90
2022-10-16T03:38:41.896Z,7.67
2022-10-16T03:41:10.379Z,9.87
2022-10-16T03:43:40.209Z,7.63
2022-10-16T03:46:08.683Z,9.37
2022-10-16T03:48:37.114Z,8.60
2022-10-16T03:51:05.676Z,6.77
2022-10-16T03:53:34.087Z,7.63
2022-10-16T03:56:02.541Z,8.03
2022-10-16T03:58:30.955Z,8.50
2022-10-16T04:01:00.846Z,8.23
2022-10-16T04:03:29.273Z,6.97
2022-10-16T04:05:57.879Z,8.90
2022-10-16T04:08:26.417Z,9.90
2022-10-16T04:10:54.909Z,6.57
2022-10-16T04:13:23.355Z,8.40
2022-10-16T04:15:51.830Z,6.77
2022-10-16T04:18:21.634Z,7.73
2022-10-16T04:20:50.077Z,8.40
2022-10-16T04:23:18.564Z,7.33
2022-10-16T04:25:47.021Z,7.30
2022-10-16T04:28:15.534Z,5.90
2022-10-16T04:30:44.072Z,7.30
2022-10-16T04:33:13.848Z,7.80
2022-10-16T04:35:43.781Z,7.80
2022-10-16T04:38:12.407Z,8.10
2022-10-16T04:40:40.844Z,6.90
2022-10-16T04:43:09.337Z,10.23
2022-10-16T04:45:37.784Z,8.13
2022-10-16T04:48:06.336Z,5.47
2022-10-16T04:50:34.769Z,9.80
2022-10-16T04:53:04.631Z,7.13
2022-10-16T04:55:33.092Z,8.40
2022-10-16T04:58:01.503Z,6.67
2022-10-16T05:00:29.945Z,5.93
2022-10-16T05:03:00.588Z,6.03
2022-10-16T05:05:44.891Z,11.27
2022-10-16T05:08:14.776Z,6.93
2022-10-16T05:10:44.343Z,6.67
2022-10-16T05:13:12.818Z,5.20
2022-10-16T05:15:41.337Z,6.23
2022-10-16T05:18:09.774Z,7.33
2022-10-16T05:20:38.199Z,4.87
2022-10-16T05:23:06.717Z,6.70
2022-10-16T05:25:36.800Z,5.97
2022-10-16T05:28:05.261Z,7.07
2022-10-16T05:30:33.790Z,5.80
2022-10-16T05:33:02.221Z,5.43
2022-10-16T05:35:30.682Z,4.83
2022-10-16T05:37:59.091Z,7.43
2022-10-16T05:40:27.871Z,6.67
2022-10-16T05:42:59.278Z,5.23
2022-10-16T05:45:28.341Z,7.83
2022-10-16T05:47:57.275Z,5.53
2022-10-16T05:50:26.140Z,6.23
2022-10-16T05:52:55.079Z,6.60
2022-10-16T05:55:23.948Z,8.43
2022-10-16T05:57:52.900Z,6.63
2022-10-16T06:00:22.949Z,5.07
2022-10-16T06:02:51.779Z,6.00
2022-10-16T06:05:20.663Z,5.10
2022-10-16T06:07:49.391Z,4.23
2022-10-16T06:10:18.249Z,3.47
2022-10-16T06:12:47.150Z,4.07
2022-10-16T06:15:15.977Z,4.80
2022-10-16T06:17:46.352Z,5.33
2022-10-16T06:20:16.838Z,3.10
2022-10-16T06:22:45.703Z,2.97
2022-10-16T06:25:14.504Z,3.30
2022-10-16T06:27:43.632Z,3.20
2022-10-16T06:30:13.069Z,3.17
2022-10-16T06:32:41.926Z,3.87
2022-10-16T06:42:33.470Z,4.90
2022-10-16T07:13:17.870Z,2.80
2022-10-16T07:15:52.869Z,3.23
2022-10-16T07:25:26.408Z,1.10
2022-10-16T07:31:54.245Z,2.53
2022-10-16T07:34:23.686Z,1.90
2022-10-16T07:37:08.547Z,2.07
2022-10-16T07:39:50.020Z,2.03
2022-10-16T07:42:21.934Z,6.00
2022-10-16T07:44:57.048Z,1.63
2022-10-16T07:47:27.964Z,2.27
2022-10-16T07:50:20.500Z,2.23
2022-10-16T07:52:53.296Z,1.67
2022-10-16T07:58:41.334Z,2.57
2022-10-16T08:01:11.086Z,0.97
2022-10-16T08:03:41.031Z,1.33
2022-10-16T08:06:09.569Z,4.07
2022-10-16T08:08:38.084Z,3.20
2022-10-16T08:11:06.672Z,1.77
2022-10-16T08:13:35.719Z,2.22
2022-10-16T08:16:08.823Z,2.50
2022-10-16T08:18:37.790Z,1.30
2022-10-16T08:21:08.764Z,2.30
2022-10-16T08:23:37.280Z,1.63
2022-10-16T08:26:06.647Z,3.47
2022-10-16T08:28:35.472Z,1.43
2022-10-16T08:31:11.845Z,2.75
2022-10-16T08:33:40.695Z,1.30
2022-10-16T08:36:11.728Z,3.05
2022-10-16T08:38:40.536Z,1.87
2022-10-16T08:41:27.245Z,2.80
2022-10-16T08:44:06.846Z,1.98
2022-10-16T08:46:49.707Z,2.33
2022-10-16T08:49:19.717Z,2.55
2022-10-16T08:51:51.878Z,4.72
2022-10-16T08:54:31.639Z,1.92
2022-10-16T08:57:03.559Z,1.75
2022-10-16T08:59:32.058Z,2.55
2022-10-16T09:02:02.612Z,2.20
2022-10-16T09:04:52.873Z,1.55
2022-10-16T09:07:28.001Z,2.42
2022-10-16T09:10:02.364Z,2.63
2022-10-16T09:12:35.267Z,2.03
2022-10-16T09:15:08.136Z,3.75
2022-10-16T09:17:41.514Z,3.08
2022-10-16T09:20:20.931Z,2.05
2022-10-16T09:22:51.349Z,1.33
2022-10-16T09:25:22.603Z,1.83
2022-10-16T09:27:51.991Z,3.55
2022-10-16T09:30:21.630Z,1.42
2022-10-16T09:32:51.243Z,1.17
2022-10-16T09:35:20.495Z,2.28
2022-10-16T09:37:50.957Z,2.42
2022-10-16T09:40:29.215Z,1.42
2022-10-16T09:43:00.647Z,2.10
2022-10-16T09:45:29.146Z,4.32
2022-10-16T09:47:58.043Z,4.05
2022-10-16T09:50:28.008Z,2.20
2022-10-16T09:53:06.852Z,1.50
2022-10-16T09:55:36.823Z,4.20
2022-10-16T09:58:05.368Z,4.03
2022-10-16T10:00:33.872Z,3.90
2022-10-16T10:03:02.392Z,2.70
2022-10-16T10:05:31.867Z,2.35
2022-10-16T10:08:01.268Z,2.95
2022-10-16T10:10:30.798Z,2.80
2022-10-16T10:13:01.167Z,2.97
2022-10-16T10:15:31.174Z,1.40
2022-10-16T10:18:00.771Z,2.45
2022-10-16T10:20:30.438Z,2.15
2022-10-16T10:22:59.217Z,3.65
2022-10-16T10:25:35.999Z,3.40
2022-10-16T10:28:11.880Z,2.83
2022-10-16T10:30:44.383Z,3.55
2022-10-16T10:33:17.691Z,2.10
2022-10-16T10:35:48.052Z,2.28
2022-10-16T10:38:23.917Z,1.95
2022-10-16T10:40:54.329Z,3.03
2022-10-16T10:43:31.823Z,3.72
2022-10-16T10:46:02.934Z,1.50
2022-10-16T10:48:43.229Z,1.58
2022-10-16T10:51:14.954Z,2.03
2022-10-16T10:53:47.552Z,2.42
2022-10-16T10:56:22.876Z,4.22
2022-10-16T10:59:12.433Z,1.80
2022-10-16T11:01:48.085Z,4.60
2022-10-16T11:04:33.144Z,2.22
2022-10-16T11:07:04.020Z,2.97
2022-10-16T11:09:35.904Z,3.63
2022-10-16T11:12:06.146Z,3.17
2022-10-16T11:14:37.598Z,3.17
2022-10-16T11:17:11.824Z,4.15
2022-10-16T11:19:42.756Z,1.75
2022-10-16T11:22:15.546Z,3.03
2022-10-16T11:24:45.804Z,3.50
2022-10-16T11:27:17.697Z,4.20
2022-10-16T11:29:49.619Z,3.30
2022-10-16T11:32:22.973Z,2.67
2022-10-16T11:34:53.548Z,3.47
2022-10-16T11:37:25.275Z,2.00
2022-10-16T11:39:55.252Z,2.50
2022-10-16T11:42:25.761Z,3.78
2022-10-16T11:44:58.182Z,3.50
2022-10-16T11:50:23.639Z,2.38
2022-10-16T11:52:56.928Z,4.07
2022-10-16T11:55:27.317Z,2.42
2022-10-16T11:57:57.888Z,3.03
2022-10-16T12:00:27.749Z,3.45
2022-10-16T12:03:01.772Z,3.05
2022-10-16T12:05:34.333Z,3.17
2022-10-16T12:08:07.522Z,2.80
2022-10-16T12:13:08.232Z,2.40
2022-10-16T12:18:27.496Z,2.28
2022-10-16T12:21:01.757Z,2.20
2022-10-16T12:23:30.476Z,2.67
2022-10-16T12:26:00.381Z,2.65
2022-10-16T12:28:30.076Z,2.55
2022-10-16T12:30:59.203Z,2.28
2022-10-16T12:33:30.096Z,2.45
2022-10-16T12:35:59.380Z,2.50
2022-10-16T12:38:29.458Z,1.42
2022-10-16T12:41:00.290Z,2.30
2022-10-16T12:43:31.114Z,1.48
2022-10-16T12:46:04.556Z,1.83
2022-10-16T12:48:48.376Z,3.00
2022-10-16T12:51:25.883Z,3.17
2022-10-16T12:54:06.222Z,2.75
2022-10-16T12:59:13.081Z,3.38
2022-10-16T13:01:45.421Z,2.38
2022-10-16T13:04:32.769Z,1.60
2022-10-16T13:07:05.252Z,1.83
2022-10-16T13:09:43.249Z,1.52
2022-10-16T13:12:32.133Z,1.75
2022-10-16T13:15:11.742Z,2.65
2022-10-16T13:17:44.970Z,4.43
2022-10-16T13:20:20.495Z,3.10
2022-10-16T13:22:57.389Z,2.08
2022-10-16T13:25:30.244Z,1.23
2022-10-16T13:28:07.201Z,2.35
2022-10-16T13:30:38.558Z,2.95
2022-10-16T13:33:09.566Z,1.50
2022-10-16T13:35:39.421Z,3.70
2022-10-16T13:38:16.156Z,3.92
2022-10-16T13:40:51.902Z,2.58
2022-10-16T13:43:20.719Z,2.13
2022-10-16T13:45:55.797Z,2.83
2022-10-16T13:48:24.546Z,2.20
2022-10-16T13:51:05.036Z,5.30
2022-10-16T13:53:34.304Z,2.08
2022-10-16T13:56:06.357Z,2.63
2022-10-16T13:58:35.286Z,2.53
2022-10-16T14:01:06.428Z,3.60
2022-10-16T14:03:36.988Z,2.17
2022-10-16T14:06:10.901Z,1.60
2022-10-16T14:08:39.467Z,2.97
2022-10-16T14:11:08.323Z,1.40
2022-10-16T14:13:39.747Z,3.28
2022-10-16T14:16:10.356Z,2.33
2022-10-16T14:18:39.883Z,1.58
2022-10-16T14:21:14.903Z,3.70
2022-10-16T14:23:44.353Z,1.90
2022-10-16T14:26:17.177Z,2.90
2022-10-16T14:28:46.394Z,2.75
2022-10-16T14:31:29.356Z,2.03
2022-10-16T14:33:57.911Z,1.50
2022-10-16T14:36:28.305Z,1.10
2022-10-16T14:39:02.691Z,3.47
2022-10-16T14:41:32.286Z,1.63
2022-10-16T14:44:04.255Z,2.83
2022-10-16T14:46:34.916Z,1.70
2022-10-16T14:49:05.510Z,2.30
2022-10-16T14:51:35.555Z,3.78
2022-10-16T14:54:03.996Z,2.17
2022-10-16T14:56:33.570Z,2.47
2022-10-16T14:59:02.509Z,1.88
2022-10-16T15:01:36.026Z,2.47
2022-10-16T15:04:05.134Z,2.25
2022-10-16T15:06:35.357Z,1.90
2022-10-16T15:09:03.875Z,1.33
2022-10-16T15:11:34.364Z,2.63
2022-10-16T15:14:03.115Z,2.15
2022-10-16T15:16:32.950Z,4.65
2022-10-16T15:19:01.710Z,2.38
2022-10-16T15:21:31.940Z,1.60
2022-10-16T15:24:02.695Z,2.83
2022-10-16T15:29:14.417Z,1.60
2022-10-16T15:31:43.814Z,3.60
2022-10-16T15:34:14.207Z,2.85
2022-10-16T15:36:43.254Z,2.47
2022-10-16T15:39:15.620Z,2.10
2022-10-16T15:41:44.567Z,2.35
2022-10-16T15:44:13.003Z,3.00
2022-10-16T15:46:41.552Z,1.38
2022-10-16T15:49:11.682Z,1.63
2022-10-16T15:51:41.060Z,1.45
2022-10-16T15:54:09.473Z,2.53
2022-10-16T15:56:39.329Z,4.30
2022-10-16T15:59:08.058Z,1.65
2022-10-16T16:01:36.876Z,2.88
2022-10-16T16:04:15.239Z,1.50
2022-10-16T16:06:51.437Z,3.72
2022-10-16T16:09:19.833Z,2.75
2022-10-16T16:11:50.320Z,4.47
2022-10-16T16:14:18.948Z,2.90
2022-10-16T16:16:47.631Z,2.38
2022-10-16T16:19:18.169Z,2.63
2022-10-16T16:21:46.718Z,4.25
2022-10-16T16:24:15.163Z,3.58
2022-10-16T16:26:44.597Z,4.93
2022-10-16T16:29:15.079Z,3.25
2022-10-16T16:31:44.154Z,2.70
2022-10-16T16:34:12.719Z,3.30
2022-10-16T16:36:41.502Z,3.13
2022-10-16T16:39:11.474Z,2.88
2022-10-16T16:41:40.406Z,3.08
2022-10-16T16:44:09.919Z,2.58
2022-10-16T16:46:40.759Z,3.95
2022-10-16T16:49:09.450Z,2.90
2022-10-16T16:51:39.937Z,3.45
2022-10-16T16:54:09.716Z,2.65
2022-10-16T16:56:38.208Z,3.63
2022-10-16T16:59:06.670Z,2.88
2022-10-16T17:01:35.171Z,4.10
2022-10-16T17:04:05.275Z,3.78
2022-10-16T17:06:33.831Z,3.65
2022-10-16T17:09:04.953Z,3.85
2022-10-16T17:11:33.637Z,4.30
2022-10-16T17:14:02.395Z,3.47
2022-10-16T17:16:32.785Z,3.42
2022-10-16T17:19:06.057Z,5.70
2022-10-16T17:21:34.784Z,5.45
2022-10-16T17:24:03.647Z,6.45
2022-10-16T17:26:32.902Z,5.17
2022-10-16T17:29:06.322Z,3.60
2022-10-16T17:31:35.772Z,4.13
2022-10-16T17:34:06.754Z,2.60
2022-10-16T17:36:36.470Z,4.10
2022-10-16T17:39:06.781Z,3.23
2022-10-16T17:41:35.780Z,2.97
2022-10-16T17:44:04.455Z,3.73
2022-10-16T17:46:36.894Z,3.70
2022-10-16T17:49:13.236Z,3.60
2022-10-16T17:51:41.877Z,6.00
2022-10-16T17:54:11.244Z,3.87
2022-10-16T17:56:39.694Z,3.13
2022-10-16T17:59:08.153Z,4.43
2022-10-16T18:01:38.244Z,3.83
2022-10-16T18:04:09.390Z,3.97
2022-10-16T18:06:39.364Z,3.13
2022-10-16T18:09:08.815Z,3.30
2022-10-16T18:11:37.655Z,2.93
2022-10-16T18:14:06.202Z,3.60
2022-10-16T18:16:36.713Z,4.77
2022-10-16T18:19:08.399Z,3.67
2022-10-16T18:21:36.882Z,4.07
2022-10-16T18:24:06.828Z,4.33
2022-10-16T18:26:35.287Z,4.50
2022-10-16T18:29:05.035Z,3.23
2022-10-16T18:31:35.048Z,5.03
2022-10-16T18:34:05.130Z,3.60
2022-10-16T18:36:34.657Z,3.23
2022-10-16T18:39:04.049Z,5.43
2022-10-16T18:41:33.878Z,3.93
2022-10-16T18:44:02.357Z,4.10
2022-10-16T18:46:31.090Z,5.13
2022-10-16T18:49:00.544Z,5.67
2022-10-16T18:51:29.928Z,4.40
2022-10-16T18:54:00.356Z,4.43
2022-10-16T18:56:30.707Z,4.50
2022-10-16T18:59:01.333Z,4.77
2022-10-16T19:01:30.959Z,6.17
2022-10-16T19:04:00.641Z,5.10
2022-10-16T19:06:29.687Z,4.73
2022-10-16T19:08:58.413Z,4.57
2022-10-16T19:11:27.976Z,4.97
2022-10-16T19:13:58.929Z,5.10
2022-10-16T19:16:29.879Z,5.23
2022-10-16T19:18:59.178Z,5.50
2022-10-16T19:21:31.255Z,5.33
2022-10-16T19:24:00.626Z,5.77
2022-10-16T19:26:29.606Z,5.83
2022-10-16T19:28:59.249Z,5.93
2022-10-16T19:31:30.745Z,5.73
2022-10-16T19:33:59.972Z,6.17
2022-10-16T19:36:29.236Z,5.60
2022-10-16T19:38:58.191Z,8.23
2022-10-16T19:41:27.175Z,5.67
2022-10-16T19:43:55.645Z,6.23
2022-10-16T19:46:24.948Z,5.33
2022-10-16T19:49:11.044Z,5.50
2022-10-16T19:51:40.158Z,6.87
2022-10-16T19:54:09.636Z,5.70
2022-10-16T19:56:38.405Z,5.67
2022-10-16T19:59:07.807Z,7.90
2022-10-16T20:01:36.550Z,5.67
2022-10-16T20:04:06.604Z,6.13
2022-10-16T20:06:35.098Z,7.00
2022-10-16T20:09:03.508Z,5.57
2022-10-16T20:11:32.720Z,5.70
2022-10-16T20:14:01.311Z,5.43
2022-10-16T20:16:30.021Z,5.43
2022-10-16T20:18:59.188Z,6.67
2022-10-16T20:21:30.001Z,5.40
2022-10-16T20:23:59.070Z,5.63
2022-10-16T20:26:27.543Z,5.30
2022-10-16T20:28:56.461Z,5.50
2022-10-16T20:31:26.125Z,5.80
2022-10-16T20:33:55.226Z,5.70
2022-10-16T20:36:24.761Z,7.00
2022-10-16T20:38:55.099Z,5.33
2022-10-16T20:41:23.805Z,5.33
2022-10-16T20:43:52.690Z,6.37
2022-10-16T20:46:22.239Z,6.27
2022-10-16T20:48:50.906Z,7.60
2022-10-16T20:51:20.904Z,5.70
2022-10-16T20:53:49.907Z,5.93
2022-10-16T20:56:19.739Z,5.80
2022-10-16T20:58:48.213Z,4.97
2022-10-16T21:01:17.710Z,7.40
2022-10-16T21:03:46.869Z,4.63
2022-10-16T21:06:15.287Z,4.50
2022-10-16T21:08:44.474Z,5.23
2022-10-16T21:11:13.899Z,4.80
2022-10-16T21:13:43.983Z,7.53
2022-10-16T21:16:12.754Z,4.83
2022-10-16T21:18:44.381Z,5.03
2022-10-16T21:21:20.677Z,4.80
2022-10-16T21:23:49.498Z,5.10
2022-10-16T21:26:18.353Z,5.17
2022-10-16T21:28:48.298Z,5.13
2022-10-16T21:31:18.981Z,4.43
2022-10-16T21:33:47.586Z,5.83
2022-10-16T21:36:17.039Z,4.20
2022-10-16T21:41:15.919Z,4.17
2022-10-16T21:43:44.490Z,4.80
2022-10-16T21:46:14.322Z,4.10
2022-10-16T21:48:43.736Z,4.70
2022-10-16T21:51:12.623Z,4.10
2022-10-16T21:53:41.332Z,4.63
2022-10-16T21:56:14.883Z,4.40
2022-10-16T21:58:43.650Z,6.43
2022-10-16T22:01:13.344Z,4.83
2022-10-16T22:03:43.247Z,5.10
2022-10-16T22:06:12.707Z,5.97
2022-10-16T22:08:41.499Z,5.13
2022-10-16T22:11:11.243Z,4.90
2022-10-16T22:13:40.063Z,4.90
2022-10-16T22:16:08.996Z,6.50
2022-10-16T22:18:38.279Z,5.17
2022-10-16T22:21:09.352Z,6.50
2022-10-16T22:23:38.271Z,4.97
2022-10-16T22:26:07.832Z,4.50
2022-10-16T22:28:36.848Z,6.93
2022-10-16T22:31:05.987Z,4.33
2022-10-16T22:36:02.850Z,4.87
2022-10-16T22:38:32.729Z,4.93
2022-10-16T22:41:03.244Z,4.70
2022-10-16T22:43:31.826Z,4.83
2022-10-16T22:46:03.785Z,4.67
2022-10-16T22:48:32.231Z,3.23
2022-10-16T22:51:00.706Z,2.90
2022-10-16T22:53:29.278Z,3.60
2022-10-16T22:55:59.142Z,6.47
2022-10-16T22:58:27.599Z,3.90
2022-10-16T23:03:24.818Z,3.40
2022-10-16T23:05:53.459Z,3.90
2022-10-16T23:08:21.883Z,2.60
2022-10-16T23:10:50.813Z,3.60
2022-10-16T23:13:20.638Z,2.77
2022-10-16T23:15:49.119Z,3.47
2022-10-16T23:18:17.588Z,2.50
2022-10-16T23:20:46.103Z,3.00
2022-10-16T23:23:14.575Z,3.40
2022-10-16T23:25:47.111Z,3.80
2022-10-16T23:30:50.845Z,5.70
2022-10-16T23:33:19.367Z,2.50
2022-10-16T23:35:47.810Z,2.67
2022-10-16T23:38:16.298Z,4.13
2022-10-16T23:40:44.940Z,3.40
2022-10-16T23:43:13.410Z,3.07
2022-10-16T23:45:41.906Z,5.03
2022-10-16T23:48:11.728Z,3.23
2022-10-16T23:50:40.193Z,3.13
2022-10-16T23:53:10.143Z,3.73
2022-10-16T23:55:38.820Z,2.63
2022-10-16T23:58:07.304Z,3.60
